sensor_id;sensor_type;location;lat;lon;timestamp;P1;durP1;ratioP1;P2;durP2;ratioP2
295;SDS011;132;48.770;9.200;2023-11-18T01:01:39;5.57;;;4.03;;
295;SDS011;132;48.770;9.200;2023-11-18T01:09:54;4.95;;;3.90;;
295;SDS011;132;48.770;9.200;2023-11-18T03:31:02;3.53;;;2.85;;
295;SDS011;132;48.770;9.200;2023-11-18T03:33:33;3.13;;;2.72;;
295;SDS011;132;48.770;9.200;2023-11-18T03:36:06;5.20;;;3.40;;
295;SDS011;132;48.770;9.200;2023-11-18T03:38:44;3.28;;;2.85;;
295;SDS011;132;48.770;9.200;2023-11-18T03:41:16;3.25;;;3.00;;
295;SDS011;132;48.770;9.200;2023-11-18T03:43:49;4.70;;;3.35;;
295;SDS011;132;48.770;9.200;2023-11-18T03:46:24;7.85;;;3.30;;
295;SDS011;132;48.770;9.200;2023-11-18T03:49:03;3.75;;;2.90;;
295;SDS011;132;48.770;9.200;2023-11-18T03:51:32;3.30;;;2.70;;
295;SDS011;132;48.770;9.200;2023-11-18T03:54:16;3.80;;;2.80;;
295;SDS011;132;48.770;9.200;2023-11-18T03:56:42;3.10;;;3.00;;
295;SDS011;132;48.770;9.200;2023-11-18T03:59:12;4.00;;;3.25;;
295;SDS011;132;48.770;9.200;2023-11-18T04:04:40;3.33;;;2.90;;
295;SDS011;132;48.770;9.200;2023-11-18T04:10:28;3.30;;;2.88;;
295;SDS011;132;48.770;9.200;2023-11-18T04:12:54;3.05;;;2.70;;
295;SDS011;132;48.770;9.200;2023-11-18T04:15:21;2.55;;;2.20;;
295;SDS011;132;48.770;9.200;2023-11-18T04:17:48;3.17;;;2.10;;
295;SDS011;132;48.770;9.200;2023-11-18T04:20:16;6.20;;;2.13;;
295;SDS011;132;48.770;9.200;2023-11-18T04:22:44;3.58;;;2.40;;
295;SDS011;132;48.770;9.200;2023-11-18T04:25:11;2.45;;;2.30;;
295;SDS011;132;48.770;9.200;2023-11-18T04:27:44;2.92;;;2.10;;
295;SDS011;132;48.770;9.200;2023-11-18T09:17:54;3.80;;;3.53;;
295;SDS011;132;48.770;9.200;2023-11-18T09:20:41;4.70;;;3.33;;
295;SDS011;132;48.770;9.200;2023-11-18T09:23:13;3.63;;;2.83;;
295;SDS011;132;48.770;9.200;2023-11-18T09:34:29;3.63;;;3.28;;
295;SDS011;132;48.770;9.200;2023-11-18T09:36:59;4.07;;;3.37;;
295;SDS011;132;48.770;9.200;2023-11-18T09:39:26;3.60;;;3.10;;
295;SDS011;132;48.770;9.200;2023-11-18T09:41:55;3.43;;;3.30;;
295;SDS011;132;48.770;9.200;2023-11-18T09:44:22;3.40;;;2.80;;
295;SDS011;132;48.770;9.200;2023-11-18T09:46:53;3.77;;;2.90;;
295;SDS011;132;48.770;9.200;2023-11-18T09:49:34;4.17;;;2.80;;
295;SDS011;132;48.770;9.200;2023-11-18T09:52:07;3.00;;;2.70;;
295;SDS011;132;48.770;9.200;2023-11-18T09:54:42;5.40;;;2.90;;
295;SDS011;132;48.770;9.200;2023-11-18T10:02:52;5.20;;;3.20;;
295;SDS011;132;48.770;9.200;2023-11-18T10:08:03;5.53;;;2.60;;
295;SDS011;132;48.770;9.200;2023-11-18T10:18:13;7.83;;;2.80;;
295;SDS011;132;48.770;9.200;2023-11-18T10:21:21;4.70;;;2.57;;
295;SDS011;132;48.770;9.200;2023-11-18T10:24:08;4.40;;;2.47;;
295;SDS011;132;48.770;9.200;2023-11-18T10:26:54;4.03;;;2.50;;
295;SDS011;132;48.770;9.200;2023-11-18T10:36:22;3.57;;;2.60;;
295;SDS011;132;48.770;9.200;2023-11-18T10:39:13;3.83;;;2.33;;
295;SDS011;132;48.770;9.200;2023-11-18T10:41:42;4.73;;;2.30;;
295;SDS011;132;48.770;9.200;2023-11-18T10:44:09;3.70;;;2.20;;
295;SDS011;132;48.770;9.200;2023-11-18T10:50:03;2.73;;;2.47;;
295;SDS011;132;48.770;9.200;2023-11-18T10:52:34;4.03;;;2.30;;
295;SDS011;132;48.770;9.200;2023-11-18T10:55:06;4.80;;;2.60;;
295;SDS011;132;48.770;9.200;2023-11-18T10:57:38;2.43;;;2.30;;
295;SDS011;132;48.770;9.200;2023-11-18T11:00:07;4.60;;;2.70;;
295;SDS011;132;48.770;9.200;2023-11-18T11:03:13;3.40;;;2.30;;
295;SDS011;132;48.770;9.200;2023-11-18T11:05:40;3.70;;;2.40;;
295;SDS011;132;48.770;9.200;2023-11-18T11:08:14;4.33;;;2.20;;
295;SDS011;132;48.770;9.200;2023-11-18T11:10:42;2.50;;;2.20;;
295;SDS011;132;48.770;9.200;2023-11-18T11:13:09;5.20;;;2.67;;
295;SDS011;132;48.770;9.200;2023-11-18T11:15:41;6.27;;;2.43;;
295;SDS011;132;48.770;9.200;2023-11-18T11:22:28;3.13;;;2.40;;
295;SDS011;132;48.770;9.200;2023-11-18T11:31:38;8.10;;;2.30;;
295;SDS011;132;48.770;9.200;2023-11-18T11:37:52;3.03;;;1.90;;
295;SDS011;132;48.770;9.200;2023-11-18T11:40:23;7.90;;;3.23;;
295;SDS011;132;48.770;9.200;2023-11-18T11:42:52;4.10;;;2.30;;
295;SDS011;132;48.770;9.200;2023-11-18T11:45:21;2.90;;;1.87;;
295;SDS011;132;48.770;9.200;2023-11-18T11:48:00;2.03;;;1.90;;
295;SDS011;132;48.770;9.200;2023-11-18T11:51:28;4.67;;;2.10;;
295;SDS011;132;48.770;9.200;2023-11-18T11:54:06;3.13;;;2.23;;
295;SDS011;132;48.770;9.200;2023-11-18T11:57:48;5.10;;;2.43;;
295;SDS011;132;48.770;9.200;2023-11-18T12:00:39;2.93;;;2.10;;
295;SDS011;132;48.770;9.200;2023-11-18T12:05:58;4.20;;;2.00;;
295;SDS011;132;48.770;9.200;2023-11-18T12:08:36;3.03;;;2.17;;
295;SDS011;132;48.770;9.200;2023-11-18T12:11:04;4.03;;;2.20;;
295;SDS011;132;48.770;9.200;2023-11-18T12:19:38;4.95;;;2.10;;
295;SDS011;132;48.770;9.200;2023-11-18T12:22:12;3.83;;;2.40;;
295;SDS011;132;48.770;9.200;2023-11-18T12:31:16;3.20;;;2.00;;
295;SDS011;132;48.770;9.200;2023-11-18T12:34:05;3.80;;;2.20;;
295;SDS011;132;48.770;9.200;2023-11-18T12:36:47;3.87;;;1.90;;
295;SDS011;132;48.770;9.200;2023-11-18T12:42:57;1.95;;;1.90;;
295;SDS011;132;48.770;9.200;2023-11-18T12:51:21;3.70;;;1.83;;
295;SDS011;132;48.770;9.200;2023-11-18T12:53:49;5.95;;;2.08;;
295;SDS011;132;48.770;9.200;2023-11-18T13:02:37;3.10;;;1.80;;
295;SDS011;132;48.770;9.200;2023-11-18T13:05:06;3.85;;;2.25;;
295;SDS011;132;48.770;9.200;2023-11-18T13:07:35;2.77;;;2.00;;
295;SDS011;132;48.770;9.200;2023-11-18T13:10:04;2.45;;;1.95;;
295;SDS011;132;48.770;9.200;2023-11-18T13:12:46;6.22;;;2.10;;
295;SDS011;132;48.770;9.200;2023-11-18T13:15:16;2.97;;;1.90;;
295;SDS011;132;48.770;9.200;2023-11-18T13:18:02;4.88;;;2.00;;
295;SDS011;132;48.770;9.200;2023-11-18T13:20:58;3.78;;;2.13;;
295;SDS011;132;48.770;9.200;2023-11-18T13:23:25;4.63;;;2.30;;
295;SDS011;132;48.770;9.200;2023-11-18T13:25:56;2.95;;;2.00;;
295;SDS011;132;48.770;9.200;2023-11-18T13:28:26;3.20;;;2.10;;
295;SDS011;132;48.770;9.200;2023-11-18T13:34:06;4.72;;;2.35;;
295;SDS011;132;48.770;9.200;2023-11-18T13:36:47;4.63;;;2.30;;
295;SDS011;132;48.770;9.200;2023-11-18T13:42:18;3.55;;;2.67;;
295;SDS011;132;48.770;9.200;2023-11-18T13:48:27;3.58;;;2.30;;
295;SDS011;132;48.770;9.200;2023-11-18T13:50:54;4.75;;;2.47;;
295;SDS011;132;48.770;9.200;2023-11-18T13:53:33;6.78;;;2.65;;
295;SDS011;132;48.770;9.200;2023-11-18T13:56:00;7.25;;;2.90;;
295;SDS011;132;48.770;9.200;2023-11-18T13:58:28;5.45;;;2.60;;
295;SDS011;132;48.770;9.200;2023-11-18T14:00:55;4.82;;;2.75;;
295;SDS011;132;48.770;9.200;2023-11-18T14:10:53;4.20;;;2.50;;
295;SDS011;132;48.770;9.200;2023-11-18T14:13:20;6.72;;;3.05;;
295;SDS011;132;48.770;9.200;2023-11-18T14:15:48;5.03;;;2.80;;
295;SDS011;132;48.770;9.200;2023-11-18T14:18:24;6.00;;;3.40;;
295;SDS011;132;48.770;9.200;2023-11-18T14:20:59;5.35;;;2.65;;
295;SDS011;132;48.770;9.200;2023-11-18T14:23:26;4.90;;;2.72;;
295;SDS011;132;48.770;9.200;2023-11-18T14:25:55;7.25;;;3.20;;
295;SDS011;132;48.770;9.200;2023-11-18T14:28:27;9.48;;;3.10;;
295;SDS011;132;48.770;9.200;2023-11-18T14:31:05;4.70;;;3.00;;
295;SDS011;132;48.770;9.200;2023-11-18T14:33:40;4.75;;;3.05;;
295;SDS011;132;48.770;9.200;2023-11-18T14:36:09;4.88;;;3.35;;
295;SDS011;132;48.770;9.200;2023-11-18T14:38:37;5.40;;;3.50;;
295;SDS011;132;48.770;9.200;2023-11-18T14:41:15;5.25;;;3.42;;
295;SDS011;132;48.770;9.200;2023-11-18T14:46:40;6.22;;;3.30;;
295;SDS011;132;48.770;9.200;2023-11-18T14:49:07;5.72;;;3.30;;
295;SDS011;132;48.770;9.200;2023-11-18T14:51:38;5.75;;;3.50;;
295;SDS011;132;48.770;9.200;2023-11-18T14:58:17;6.25;;;4.13;;
295;SDS011;132;48.770;9.200;2023-11-18T15:00:46;11.23;;;4.63;;
295;SDS011;132;48.770;9.200;2023-11-18T15:03:14;11.45;;;5.65;;
295;SDS011;132;48.770;9.200;2023-11-18T15:05:47;16.27;;;6.00;;
295;SDS011;132;48.770;9.200;2023-11-18T15:08:24;10.43;;;5.47;;
295;SDS011;132;48.770;9.200;2023-11-18T15:11:05;6.95;;;4.75;;
295;SDS011;132;48.770;9.200;2023-11-18T15:13:35;9.00;;;5.35;;
295;SDS011;132;48.770;9.200;2023-11-18T15:16:03;9.65;;;4.25;;
295;SDS011;132;48.770;9.200;2023-11-18T15:18:30;5.75;;;4.25;;
295;SDS011;132;48.770;9.200;2023-11-18T15:20:58;7.68;;;5.28;;
295;SDS011;132;48.770;9.200;2023-11-18T15:23:35;6.35;;;4.45;;
295;SDS011;132;48.770;9.200;2023-11-18T15:26:04;8.68;;;4.20;;
295;SDS011;132;48.770;9.200;2023-11-18T15:29:12;8.70;;;4.75;;
295;SDS011;132;48.770;9.200;2023-11-18T15:31:44;8.05;;;4.60;;
295;SDS011;132;48.770;9.200;2023-11-18T15:34:55;7.88;;;4.50;;
295;SDS011;132;48.770;9.200;2023-11-18T15:37:25;6.82;;;4.47;;
295;SDS011;132;48.770;9.200;2023-11-18T15:40:15;7.72;;;4.53;;
295;SDS011;132;48.770;9.200;2023-11-18T15:42:51;7.35;;;4.43;;
295;SDS011;132;48.770;9.200;2023-11-18T15:45:34;6.03;;;4.20;;
295;SDS011;132;48.770;9.200;2023-11-18T15:48:41;5.82;;;4.03;;
295;SDS011;132;48.770;9.200;2023-11-18T15:51:08;7.35;;;4.40;;
295;SDS011;132;48.770;9.200;2023-11-18T15:53:53;6.60;;;4.05;;
295;SDS011;132;48.770;9.200;2023-11-18T15:56:20;6.47;;;4.03;;
295;SDS011;132;48.770;9.200;2023-11-18T15:59:11;5.90;;;4.13;;
295;SDS011;132;48.770;9.200;2023-11-18T16:01:41;5.60;;;3.67;;
295;SDS011;132;48.770;9.200;2023-11-18T16:04:14;7.43;;;3.75;;
295;SDS011;132;48.770;9.200;2023-11-18T16:07:07;4.32;;;3.38;;
295;SDS011;132;48.770;9.200;2023-11-18T16:09:41;5.65;;;3.88;;
295;SDS011;132;48.770;9.200;2023-11-18T16:15:06;6.53;;;4.28;;
295;SDS011;132;48.770;9.200;2023-11-18T16:17:42;6.18;;;3.58;;
295;SDS011;132;48.770;9.200;2023-11-18T16:21:02;5.85;;;3.65;;
295;SDS011;132;48.770;9.200;2023-11-18T16:23:35;7.03;;;3.70;;
295;SDS011;132;48.770;9.200;2023-11-18T16:26:09;5.20;;;3.45;;
295;SDS011;132;48.770;9.200;2023-11-18T16:29:03;4.78;;;3.60;;
295;SDS011;132;48.770;9.200;2023-11-18T16:31:32;10.05;;;4.10;;
295;SDS011;132;48.770;9.200;2023-11-18T16:34:02;5.70;;;3.70;;
295;SDS011;132;48.770;9.200;2023-11-18T16:36:40;5.45;;;3.90;;
295;SDS011;132;48.770;9.200;2023-11-18T16:39:15;6.00;;;3.63;;
295;SDS011;132;48.770;9.200;2023-11-18T16:41:48;7.30;;;3.70;;
295;SDS011;132;48.770;9.200;2023-11-18T16:44:21;6.63;;;4.28;;
295;SDS011;132;48.770;9.200;2023-11-18T16:46:54;6.10;;;3.70;;
295;SDS011;132;48.770;9.200;2023-11-18T16:49:23;6.85;;;4.03;;
295;SDS011;132;48.770;9.200;2023-11-18T16:51:58;5.80;;;3.15;;
295;SDS011;132;48.770;9.200;2023-11-18T16:54:25;8.68;;;4.07;;
295;SDS011;132;48.770;9.200;2023-11-18T16:56:54;6.60;;;3.80;;
295;SDS011;132;48.770;9.200;2023-11-18T16:59:22;7.10;;;4.65;;
295;SDS011;132;48.770;9.200;2023-11-18T17:01:49;11.32;;;4.07;;
295;SDS011;132;48.770;9.200;2023-11-18T17:04:15;5.97;;;3.63;;
295;SDS011;132;48.770;9.200;2023-11-18T17:06:42;6.18;;;3.55;;
295;SDS011;132;48.770;9.200;2023-11-18T17:09:10;4.97;;;3.83;;
295;SDS011;132;48.770;9.200;2023-11-18T17:11:37;5.80;;;3.60;;
295;SDS011;132;48.770;9.200;2023-11-18T17:14:04;4.70;;;3.60;;
295;SDS011;132;48.770;9.200;2023-11-18T17:16:35;6.20;;;3.63;;
295;SDS011;132;48.770;9.200;2023-11-18T17:19:01;7.70;;;3.67;;
295;SDS011;132;48.770;9.200;2023-11-18T17:21:28;6.88;;;3.75;;
295;SDS011;132;48.770;9.200;2023-11-18T17:23:54;6.50;;;4.03;;
295;SDS011;132;48.770;9.200;2023-11-18T17:26:21;6.75;;;4.00;;
295;SDS011;132;48.770;9.200;2023-11-18T17:28:50;7.63;;;4.18;;
295;SDS011;132;48.770;9.200;2023-11-18T17:31:17;5.75;;;3.45;;
295;SDS011;132;48.770;9.200;2023-11-18T17:33:44;5.40;;;3.58;;
295;SDS011;132;48.770;9.200;2023-11-18T17:36:20;5.97;;;3.45;;
295;SDS011;132;48.770;9.200;2023-11-18T17:38:46;4.65;;;3.20;;
295;SDS011;132;48.770;9.200;2023-11-18T17:41:13;7.00;;;3.60;;
295;SDS011;132;48.770;9.200;2023-11-18T17:43:40;5.05;;;3.25;;
295;SDS011;132;48.770;9.200;2023-11-18T17:46:06;7.13;;;3.53;;
295;SDS011;132;48.770;9.200;2023-11-18T17:48:34;5.53;;;3.10;;
295;SDS011;132;48.770;9.200;2023-11-18T17:51:02;5.40;;;3.05;;
295;SDS011;132;48.770;9.200;2023-11-18T17:53:30;5.65;;;3.10;;
295;SDS011;132;48.770;9.200;2023-11-18T17:55:56;6.70;;;3.00;;
295;SDS011;132;48.770;9.200;2023-11-18T17:58:23;5.90;;;3.22;;
295;SDS011;132;48.770;9.200;2023-11-18T18:00:50;6.20;;;3.70;;
295;SDS011;132;48.770;9.200;2023-11-18T18:03:19;5.60;;;3.80;;
295;SDS011;132;48.770;9.200;2023-11-18T18:05:45;7.20;;;3.00;;
295;SDS011;132;48.770;9.200;2023-11-18T18:11:05;9.50;;;2.80;;
295;SDS011;132;48.770;9.200;2023-11-18T18:13:54;4.10;;;2.80;;
295;SDS011;132;48.770;9.200;2023-11-18T18:16:22;5.15;;;2.67;;
295;SDS011;132;48.770;9.200;2023-11-18T18:18:49;5.95;;;2.83;;
295;SDS011;132;48.770;9.200;2023-11-18T18:21:15;4.30;;;2.90;;
295;SDS011;132;48.770;9.200;2023-11-18T18:23:43;7.60;;;3.55;;
295;SDS011;132;48.770;9.200;2023-11-18T18:26:10;6.10;;;2.70;;
295;SDS011;132;48.770;9.200;2023-11-18T18:28:36;5.18;;;2.97;;
295;SDS011;132;48.770;9.200;2023-11-18T18:31:03;4.25;;;2.90;;
295;SDS011;132;48.770;9.200;2023-11-18T18:33:29;5.07;;;2.70;;
295;SDS011;132;48.770;9.200;2023-11-18T18:35:56;5.72;;;2.70;;
295;SDS011;132;48.770;9.200;2023-11-18T18:41:16;5.22;;;2.78;;
295;SDS011;132;48.770;9.200;2023-11-18T18:43:43;6.90;;;3.83;;
295;SDS011;132;48.770;9.200;2023-11-18T18:46:10;5.43;;;3.45;;
295;SDS011;132;48.770;9.200;2023-11-18T18:48:36;5.40;;;3.53;;
295;SDS011;132;48.770;9.200;2023-11-18T18:51:05;7.18;;;3.72;;
295;SDS011;132;48.770;9.200;2023-11-18T18:53:32;4.63;;;3.00;;
295;SDS011;132;48.770;9.200;2023-11-18T18:56:02;4.00;;;2.78;;
295;SDS011;132;48.770;9.200;2023-11-18T19:01:46;4.43;;;3.13;;
295;SDS011;132;48.770;9.200;2023-11-18T19:04:34;4.22;;;3.08;;
295;SDS011;132;48.770;9.200;2023-11-18T19:07:01;5.72;;;3.53;;
295;SDS011;132;48.770;9.200;2023-11-18T19:09:27;7.00;;;3.20;;
295;SDS011;132;48.770;9.200;2023-11-18T19:12:40;5.10;;;3.70;;
295;SDS011;132;48.770;9.200;2023-11-18T19:21:09;6.22;;;4.15;;
295;SDS011;132;48.770;9.200;2023-11-18T19:23:51;5.82;;;4.40;;
295;SDS011;132;48.770;9.200;2023-11-18T19:29:26;7.72;;;4.20;;
295;SDS011;132;48.770;9.200;2023-11-18T19:32:08;7.25;;;4.93;;
295;SDS011;132;48.770;9.200;2023-11-18T19:34:36;7.10;;;4.57;;
295;SDS011;132;48.770;9.200;2023-11-18T19:37:03;7.30;;;4.60;;
295;SDS011;132;48.770;9.200;2023-11-18T19:39:48;8.82;;;5.00;;
295;SDS011;132;48.770;9.200;2023-11-18T19:48:53;9.10;;;5.85;;
295;SDS011;132;48.770;9.200;2023-11-18T19:51:26;9.20;;;5.20;;
295;SDS011;132;48.770;9.200;2023-11-18T19:53:52;7.18;;;5.07;;
295;SDS011;132;48.770;9.200;2023-11-18T19:56:23;10.57;;;5.70;;
295;SDS011;132;48.770;9.200;2023-11-18T19:59:09;7.10;;;5.38;;
295;SDS011;132;48.770;9.200;2023-11-18T20:01:36;9.85;;;5.70;;
295;SDS011;132;48.770;9.200;2023-11-18T20:07:16;8.60;;;5.85;;
295;SDS011;132;48.770;9.200;2023-11-18T20:09:44;10.02;;;6.43;;
295;SDS011;132;48.770;9.200;2023-11-18T20:12:10;9.82;;;6.20;;
295;SDS011;132;48.770;9.200;2023-11-18T20:18:15;8.23;;;5.47;;
295;SDS011;132;48.770;9.200;2023-11-18T20:20:51;7.82;;;5.18;;
295;SDS011;132;48.770;9.200;2023-11-18T20:35:21;5.22;;;3.28;;
295;SDS011;132;48.770;9.200;2023-11-18T20:58:49;4.13;;;2.60;;
295;SDS011;132;48.770;9.200;2023-11-18T21:01:48;4.55;;;3.15;;
295;SDS011;132;48.770;9.200;2023-11-18T21:04:28;3.80;;;2.78;;
295;SDS011;132;48.770;9.200;2023-11-18T21:06:55;3.05;;;2.20;;
295;SDS011;132;48.770;9.200;2023-11-18T21:09:22;3.65;;;2.50;;
295;SDS011;132;48.770;9.200;2023-11-18T21:11:55;2.30;;;1.92;;
295;SDS011;132;48.770;9.200;2023-11-18T21:14:24;4.15;;;2.50;;
295;SDS011;132;48.770;9.200;2023-11-18T21:16:51;3.35;;;2.13;;
295;SDS011;132;48.770;9.200;2023-11-18T21:19:19;2.65;;;2.30;;
295;SDS011;132;48.770;9.200;2023-11-18T21:21:47;4.30;;;2.70;;
295;SDS011;132;48.770;9.200;2023-11-18T21:24:15;3.10;;;2.10;;
295;SDS011;132;48.770;9.200;2023-11-18T21:26:45;3.20;;;2.40;;
295;SDS011;132;48.770;9.200;2023-11-18T21:29:11;4.22;;;2.30;;
295;SDS011;132;48.770;9.200;2023-11-18T21:31:59;3.38;;;2.22;;
295;SDS011;132;48.770;9.200;2023-11-18T21:34:41;3.35;;;2.30;;
295;SDS011;132;48.770;9.200;2023-11-18T21:37:08;2.65;;;2.35;;
295;SDS011;132;48.770;9.200;2023-11-18T21:39:36;3.72;;;2.35;;
295;SDS011;132;48.770;9.200;2023-11-18T21:45:32;3.45;;;2.33;;
295;SDS011;132;48.770;9.200;2023-11-18T21:47:58;4.03;;;2.40;;
295;SDS011;132;48.770;9.200;2023-11-18T21:50:29;5.07;;;2.45;;
295;SDS011;132;48.770;9.200;2023-11-18T21:53:05;2.50;;;2.30;;
295;SDS011;132;48.770;9.200;2023-11-18T21:55:32;3.05;;;2.38;;
295;SDS011;132;48.770;9.200;2023-11-18T21:57:59;5.20;;;2.20;;
295;SDS011;132;48.770;9.200;2023-11-18T22:00:32;2.75;;;2.28;;
295;SDS011;132;48.770;9.200;2023-11-18T22:03:08;3.22;;;2.13;;
295;SDS011;132;48.770;9.200;2023-11-18T22:05:35;2.97;;;2.38;;
295;SDS011;132;48.770;9.200;2023-11-18T22:08:02;2.65;;;2.30;;
295;SDS011;132;48.770;9.200;2023-11-18T22:10:40;5.10;;;2.40;;
295;SDS011;132;48.770;9.200;2023-11-18T22:13:33;3.95;;;2.65;;
295;SDS011;132;48.770;9.200;2023-11-18T22:16:00;3.05;;;2.30;;
295;SDS011;132;48.770;9.200;2023-11-18T22:18:46;5.20;;;2.45;;
295;SDS011;132;48.770;9.200;2023-11-18T22:21:13;2.80;;;2.20;;
295;SDS011;132;48.770;9.200;2023-11-18T22:23:39;3.30;;;2.40;;
295;SDS011;132;48.770;9.200;2023-11-18T22:26:13;3.23;;;2.50;;
295;SDS011;132;48.770;9.200;2023-11-18T22:28:42;3.03;;;2.20;;
295;SDS011;132;48.770;9.200;2023-11-18T22:34:48;4.25;;;2.55;;
295;SDS011;132;48.770;9.200;2023-11-18T22:40:07;3.95;;;2.50;;
295;SDS011;132;48.770;9.200;2023-11-18T22:42:43;4.15;;;2.50;;
295;SDS011;132;48.770;9.200;2023-11-18T22:45:12;2.70;;;2.30;;
295;SDS011;132;48.770;9.200;2023-11-18T22:47:45;2.92;;;2.55;;
295;SDS011;132;48.770;9.200;2023-11-18T22:50:15;3.83;;;2.40;;
295;SDS011;132;48.770;9.200;2023-11-18T22:52:43;3.20;;;2.40;;
295;SDS011;132;48.770;9.200;2023-11-18T22:55:09;5.22;;;2.70;;
295;SDS011;132;48.770;9.200;2023-11-18T22:57:37;3.60;;;2.50;;
295;SDS011;132;48.770;9.200;2023-11-18T23:00:12;6.28;;;2.80;;
295;SDS011;132;48.770;9.200;2023-11-18T23:02:58;3.55;;;2.40;;
295;SDS011;132;48.770;9.200;2023-11-18T23:05:24;8.60;;;3.05;;
295;SDS011;132;48.770;9.200;2023-11-18T23:07:53;3.95;;;2.80;;
295;SDS011;132;48.770;9.200;2023-11-18T23:10:23;3.17;;;2.65;;
295;SDS011;132;48.770;9.200;2023-11-18T23:12:51;3.85;;;2.72;;
295;SDS011;132;48.770;9.200;2023-11-18T23:15:18;5.05;;;2.80;;
295;SDS011;132;48.770;9.200;2023-11-18T23:17:47;7.20;;;2.75;;
295;SDS011;132;48.770;9.200;2023-11-18T23:20:15;4.15;;;2.63;;
